createdAt,value
2023-05-10T00:00:06.177Z,100183.97
2023-05-10T00:02:32.786Z,100178.06
2023-05-10T00:04:59.344Z,100181.88
2023-05-10T00:07:25.936Z,100177.66
2023-05-10T00:09:52.386Z,100178.06
2023-05-10T00:12:18.981Z,100184.28
2023-05-10T00:14:46.756Z,100172.13
2023-05-10T00:17:13.241Z,100180.03
2023-05-10T00:19:39.872Z,100180.03
2023-05-10T00:22:06.346Z,100176.47
2023-05-10T00:24:32.879Z,100183.72
2023-05-10T00:26:59.330Z,100188.81
2023-05-10T00:29:25.832Z,100183.72
2023-05-10T00:31:53.625Z,100194.06
2023-05-10T00:34:20.117Z,100185.97
2023-05-10T00:36:46.584Z,100183.44
2023-05-10T00:39:13.172Z,100189.94
2023-05-10T00:41:39.611Z,100185.00
2023-05-10T00:44:06.136Z,100191.50
2023-05-10T00:46:32.965Z,100197.69
2023-05-10T00:49:01.035Z,100201.91
2023-05-10T00:51:27.787Z,100204.75
2023-05-10T00:53:54.754Z,100208.72
2023-05-10T00:56:21.265Z,100200.00
2023-05-10T00:58:47.757Z,100198.88
2023-05-10T01:01:14.494Z,100213.81
2023-05-10T01:03:41.341Z,100201.84
2023-05-10T01:06:09.238Z,100206.06
2023-05-10T01:08:35.741Z,100209.13
2023-05-10T01:11:02.391Z,100217.50
2023-05-10T01:13:34.608Z,100219.31
2023-05-10T01:16:01.478Z,100211.03
2023-05-10T01:18:29.631Z,100221.59
2023-05-10T01:21:05.279Z,100217.41
2023-05-10T01:23:46.589Z,100214.69
2023-05-10T01:26:28.721Z,100217.97
2023-05-10T01:29:14.183Z,100223.31
2023-05-10T01:32:03.768Z,100223.56
2023-05-10T01:34:36.580Z,100223.88
2023-05-10T01:37:06.998Z,100222.72
2023-05-10T01:39:42.377Z,100228.81
2023-05-10T01:42:11.277Z,100223.56
2023-05-10T01:44:42.019Z,100228.13
2023-05-10T01:47:13.376Z,100230.09
2023-05-10T01:49:44.601Z,100230.09
2023-05-10T01:52:14.868Z,100231.94
2023-05-10T01:54:45.747Z,100239.84
2023-05-10T01:57:15.210Z,100240.97
2023-05-10T01:59:46.274Z,100240.84
2023-05-10T02:02:15.785Z,100244.50
2023-05-10T02:04:44.288Z,100255.13
2023-05-10T02:07:12.220Z,100241.25
2023-05-10T02:09:39.357Z,100250.75
2023-05-10T02:12:07.330Z,100245.22
2023-05-10T02:14:36.678Z,100245.94
2023-05-10T02:17:06.258Z,100259.66
2023-05-10T02:19:36.636Z,100256.81
2023-05-10T02:22:04.822Z,100263.91
2023-05-10T02:24:33.467Z,100251.88
2023-05-10T02:27:01.697Z,100255.84
2023-05-10T02:29:29.097Z,100249.63
2023-05-10T02:31:58.329Z,100251.59
2023-05-10T02:34:26.906Z,100259.66
2023-05-10T02:36:56.662Z,100260.66
2023-05-10T02:39:24.628Z,100256.81
2023-05-10T02:41:53.114Z,100268.41
2023-05-10T02:44:21.231Z,100251.88
2023-05-10T02:46:48.080Z,100253.00
2023-05-10T02:49:14.935Z,100263.31
2023-05-10T02:51:44.996Z,100257.53
2023-05-10T02:54:15.380Z,100264.91
2023-05-10T02:56:47.824Z,100260.75
2023-05-10T02:59:14.826Z,100262.06
2023-05-10T03:01:41.374Z,100256.53
2023-05-10T03:04:07.869Z,100262.47
2023-05-10T03:06:34.390Z,100264.75
2023-05-10T03:09:01.106Z,100269.56
2023-05-10T03:11:38.484Z,100267.56
2023-05-10T03:14:14.211Z,100275.50
2023-05-10T03:16:45.590Z,100271.97
2023-05-10T03:19:18.479Z,100270.66
2023-05-10T03:21:50.496Z,100274.75
2023-05-10T03:24:19.641Z,100278.75
2023-05-10T03:26:48.201Z,100279.59
2023-05-10T03:29:16.738Z,100276.06
2023-05-10T03:31:43.718Z,100279.19
2023-05-10T03:34:10.241Z,100271.97
2023-05-10T03:36:36.761Z,100277.63
2023-05-10T03:39:03.262Z,100273.63
2023-05-10T03:41:30.216Z,100271.66
2023-05-10T03:43:58.036Z,100271.38
2023-05-10T03:46:24.492Z,100280.69
2023-05-10T03:48:50.964Z,100280.56
2023-05-10T03:51:17.420Z,100283.25
2023-05-10T03:53:43.883Z,100284.94
2023-05-10T03:56:10.353Z,100277.63
2023-05-10T03:58:36.897Z,100288.22
2023-05-10T04:01:04.947Z,100294.44
2023-05-10T04:03:31.760Z,100298.78
2023-05-10T04:06:00.507Z,100300.22
2023-05-10T04:08:27.139Z,100296.25
2023-05-10T04:10:53.591Z,100291.03
2023-05-10T04:13:20.103Z,100291.44
2023-05-10T04:15:46.612Z,100301.06
2023-05-10T04:18:14.405Z,100301.91
2023-05-10T04:20:40.890Z,100304.47
2023-05-10T04:23:07.356Z,100311.53
2023-05-10T04:25:34.957Z,100305.16
2023-05-10T04:28:01.379Z,100312.78
2023-05-10T04:30:27.989Z,100316.06
2023-05-10T04:32:54.600Z,100314.78
2023-05-10T04:35:22.409Z,100311.13
2023-05-10T04:37:48.888Z,100306.44
2023-05-10T04:40:15.867Z,100314.50
2023-05-10T04:42:42.552Z,100316.06
2023-05-10T04:45:09.468Z,100319.75
2023-05-10T04:47:36.003Z,100316.91
2023-05-10T04:50:02.533Z,100311.53
2023-05-10T04:52:30.432Z,100316.06
2023-05-10T04:54:57.071Z,100319.44
2023-05-10T04:57:23.626Z,100312.78
2023-05-10T04:59:50.641Z,100318.63
2023-05-10T05:02:17.340Z,100315.78
2023-05-10T05:04:43.907Z,100322.00
2023-05-10T05:07:10.394Z,100328.09
2023-05-10T05:09:38.197Z,100339.53
2023-05-10T05:12:05.146Z,100330.75
2023-05-10T05:14:31.632Z,100345.97
2023-05-10T05:16:58.123Z,100351.22
2023-05-10T05:19:24.649Z,100344.03
2023-05-10T05:21:51.117Z,100343.59
2023-05-10T05:24:17.573Z,100337.81
2023-05-10T05:26:45.308Z,100351.13
2023-05-10T05:29:11.778Z,100356.06
2023-05-10T05:31:38.450Z,100354.38
2023-05-10T05:34:05.010Z,100353.81
2023-05-10T05:36:31.626Z,100360.88
2023-05-10T05:38:58.193Z,100354.63
2023-05-10T05:41:24.696Z,100359.56
2023-05-10T05:43:52.511Z,100362.72
2023-05-10T05:46:19.091Z,100363.59
2023-05-10T05:48:45.694Z,100368.50
2023-05-10T05:51:12.173Z,100363.13
2023-05-10T05:53:38.614Z,100366.53
2023-05-10T05:56:05.522Z,100358.47
2023-05-10T05:58:31.981Z,100369.06
2023-05-10T06:00:59.760Z,100375.84
2023-05-10T06:03:26.565Z,100379.38
2023-05-10T06:05:53.285Z,100381.50
2023-05-10T06:08:19.906Z,100373.19
2023-05-10T06:10:46.447Z,100372.03
2023-05-10T06:13:13.045Z,100383.66
2023-05-10T06:15:39.726Z,100378.97
2023-05-10T06:18:07.747Z,100377.97
2023-05-10T06:20:34.802Z,100381.84
2023-05-10T06:23:01.376Z,100388.16
2023-05-10T06:25:27.846Z,100389.03
2023-05-10T06:27:54.332Z,100392.88
2023-05-10T06:30:20.990Z,100387.22
2023-05-10T06:32:47.611Z,100389.91
2023-05-10T06:35:15.726Z,100382.53
2023-05-10T06:37:42.397Z,100390.31
2023-05-10T06:40:09.566Z,100388.63
2023-05-10T06:42:36.096Z,100392.28
2023-05-10T06:45:02.830Z,100391.41
2023-05-10T06:47:29.322Z,100394.66
2023-05-10T06:49:55.816Z,100386.03
2023-05-10T06:52:23.702Z,100392.88
2023-05-10T06:54:50.234Z,100390.88
2023-05-10T06:57:30.598Z,100385.50
2023-05-10T06:59:58.752Z,100397.75
2023-05-10T07:02:25.400Z,100396.59
2023-05-10T07:04:51.915Z,100398.44
2023-05-10T07:07:18.786Z,100400.97
2023-05-10T07:09:46.879Z,100399.53
2023-05-10T07:12:15.241Z,100395.94
2023-05-10T07:14:42.328Z,100402.56
2023-05-10T07:17:09.036Z,100402.56
2023-05-10T07:19:35.540Z,100406.94
2023-05-10T07:22:02.220Z,100406.03
2023-05-10T07:24:28.787Z,100404.28
2023-05-10T07:26:56.595Z,100405.13
2023-05-10T07:29:23.078Z,100402.72
2023-05-10T07:31:49.565Z,100401.47
2023-05-10T07:34:16.120Z,100402.38
2023-05-10T07:36:42.802Z,100402.56
2023-05-10T07:39:09.412Z,100394.25
2023-05-10T07:41:36.234Z,100398.88
2023-05-10T07:44:04.525Z,100401.56
2023-05-10T07:46:31.053Z,100394.19
2023-05-10T07:48:57.609Z,100396.97
2023-05-10T07:51:24.471Z,100402.59
2023-05-10T07:53:50.938Z,100397.50
2023-05-10T07:56:23.355Z,100402.03
2023-05-10T07:58:50.204Z,100395.22
2023-05-10T08:01:18.168Z,100401.13
2023-05-10T08:03:44.795Z,100403.91
2023-05-10T08:06:11.300Z,100405.38
2023-05-10T08:08:37.774Z,100402.97
2023-05-10T08:11:04.973Z,100395.59
2023-05-10T08:13:31.639Z,100391.22
2023-05-10T08:15:58.373Z,100406.22
2023-05-10T08:18:26.211Z,100397.75
2023-05-10T08:20:52.761Z,100405.41
2023-05-10T08:23:19.259Z,100402.03
2023-05-10T08:25:45.778Z,100406.25
2023-05-10T08:28:12.279Z,100410.78
2023-05-10T08:30:38.889Z,100408.94
2023-05-10T08:33:05.462Z,100404.25
2023-05-10T08:35:33.359Z,100407.66
2023-05-10T08:37:59.874Z,100403.38
2023-05-10T08:40:27.287Z,100403.22
2023-05-10T08:42:59.830Z,100412.53
2023-05-10T08:45:30.543Z,100408.44
2023-05-10T08:47:57.453Z,100407.59
2023-05-10T08:50:25.943Z,100414.28
2023-05-10T08:52:58.439Z,100419.16
2023-05-10T08:55:25.015Z,100420.16
2023-05-10T08:57:51.821Z,100424.78
2023-05-10T09:00:19.201Z,100428.47
2023-05-10T09:02:45.978Z,100424.28
2023-05-10T09:05:13.436Z,100431.06
2023-05-10T09:07:40.000Z,100423.50
2023-05-10T09:10:09.751Z,100428.72
2023-05-10T09:12:36.778Z,100424.34
2023-05-10T09:15:04.978Z,100423.88
2023-05-10T09:17:31.688Z,100432.47
2023-05-10T09:19:59.065Z,100435.66
2023-05-10T09:22:25.916Z,100431.00
2023-05-10T09:25:04.756Z,100428.28
2023-05-10T09:27:32.700Z,100432.38
2023-05-10T09:29:59.294Z,100427.13
2023-05-10T09:32:37.370Z,100425.91
2023-05-10T09:35:09.158Z,100428.03
2023-05-10T09:37:35.782Z,100433.66
2023-05-10T09:40:05.668Z,100439.34
2023-05-10T09:42:33.454Z,100425.75
2023-05-10T09:45:03.759Z,100425.63
2023-05-10T09:47:32.318Z,100428.03
2023-05-10T09:49:59.037Z,100428.19
2023-05-10T09:52:25.610Z,100435.31
2023-05-10T09:54:54.577Z,100433.63
2023-05-10T09:57:22.869Z,100428.69
2023-05-10T09:59:50.696Z,100426.53
2023-05-10T10:02:17.813Z,100437.41
2023-05-10T10:04:44.337Z,100446.38
2023-05-10T10:07:10.805Z,100436.50
2023-05-10T10:09:37.278Z,100439.25
2023-05-10T10:12:04.329Z,100446.94
2023-05-10T10:14:31.296Z,100443.53
2023-05-10T10:17:08.211Z,100445.72
2023-05-10T10:19:36.275Z,100436.06
2023-05-10T10:22:03.178Z,100442.41
2023-05-10T10:24:29.727Z,100439.88
2023-05-10T10:27:04.352Z,100438.44
2023-05-10T10:29:37.858Z,100442.63
2023-05-10T10:32:12.939Z,100445.31
2023-05-10T10:34:40.250Z,100453.28
2023-05-10T10:37:07.327Z,100448.06
2023-05-10T10:39:33.852Z,100451.50
2023-05-10T10:42:00.859Z,100450.38
2023-05-10T10:44:36.343Z,100457.91
2023-05-10T10:47:07.146Z,100454.63
2023-05-10T10:49:38.257Z,100445.56
2023-05-10T10:52:16.554Z,100452.81
2023-05-10T10:54:51.032Z,100451.38
2023-05-10T10:57:19.555Z,100447.13
2023-05-10T10:59:47.203Z,100442.75
2023-05-10T11:05:25.467Z,100451.53
2023-05-10T11:07:56.022Z,100467.50
2023-05-10T11:10:23.503Z,100454.44
2023-05-10T11:12:54.190Z,100459.53
2023-05-10T11:15:20.773Z,100461.56
2023-05-10T11:17:49.228Z,100459.03
2023-05-10T11:20:16.509Z,100457.06
2023-05-10T11:22:51.348Z,100458.56
2023-05-10T11:25:19.415Z,100458.00
2023-05-10T11:27:49.037Z,100456.72
2023-05-10T11:30:16.457Z,100460.22
2023-05-10T11:32:43.467Z,100459.78
2023-05-10T11:35:10.962Z,100454.00
2023-05-10T11:37:37.945Z,100456.41
2023-05-10T11:40:05.549Z,100454.88
2023-05-10T11:42:33.468Z,100453.88
2023-05-10T11:45:01.747Z,100442.09
2023-05-10T11:47:28.269Z,100448.84
2023-05-10T11:49:54.809Z,100453.50
2023-05-10T11:52:21.856Z,100449.88
2023-05-10T11:54:52.334Z,100459.31
2023-05-10T11:57:20.211Z,100459.00
2023-05-10T11:59:48.038Z,100451.94
2023-05-10T12:02:15.053Z,100455.09
2023-05-10T12:04:42.342Z,100454.78
2023-05-10T12:07:09.067Z,100452.72
2023-05-10T12:09:43.738Z,100455.78
2023-05-10T12:12:11.118Z,100442.25
2023-05-10T12:14:37.620Z,100448.19
2023-05-10T12:17:05.457Z,100443.94
2023-05-10T12:19:38.359Z,100445.50
2023-05-10T12:22:05.774Z,100440.84
2023-05-10T12:24:35.029Z,100430.84
2023-05-10T12:27:05.863Z,100439.75
2023-05-10T12:29:32.442Z,100426.97
2023-05-10T12:32:00.322Z,100428.41
2023-05-10T12:34:32.295Z,100431.63
2023-05-10T12:36:59.640Z,100435.28
2023-05-10T12:39:26.243Z,100435.16
2023-05-10T12:41:52.896Z,100437.50
2023-05-10T12:44:19.656Z,100433.53
2023-05-10T12:46:46.120Z,100440.09
2023-05-10T12:49:12.645Z,100437.25
2023-05-10T12:51:40.496Z,100437.13
2023-05-10T12:54:07.013Z,100432.03
2023-05-10T12:56:33.540Z,100443.78
2023-05-10T12:59:00.060Z,100430.41
2023-05-10T13:01:26.778Z,100441.28
2023-05-10T13:03:53.283Z,100429.25
2023-05-10T13:06:19.832Z,100435.19
2023-05-10T13:08:47.674Z,100434.06
2023-05-10T13:11:14.183Z,100439.19
2023-05-10T13:13:40.634Z,100438.03
2023-05-10T13:16:07.722Z,100439.72
2023-05-10T13:18:34.313Z,100445.50
2023-05-10T13:21:00.895Z,100443.81
2023-05-10T13:23:27.417Z,100448.25
2023-05-10T13:25:55.237Z,100448.09
2023-05-10T13:28:21.705Z,100450.59
2023-05-10T13:30:48.222Z,100454.53
2023-05-10T13:33:14.862Z,100456.25
2023-05-10T13:35:41.488Z,100464.03
2023-05-10T13:38:08.032Z,100453.41
2023-05-10T13:40:34.544Z,100452.97
2023-05-10T13:43:02.406Z,100463.31
2023-05-10T13:45:28.905Z,100460.94
2023-05-10T13:47:55.446Z,100461.63
2023-05-10T13:50:21.989Z,100448.63
2023-05-10T13:52:48.438Z,100463.03
2023-05-10T13:55:15.132Z,100449.78
2023-05-10T13:57:41.988Z,100456.72
2023-05-10T14:00:10.594Z,100457.97
2023-05-10T14:02:37.092Z,100462.50
2023-05-10T14:05:04.195Z,100470.63
2023-05-10T14:07:30.691Z,100465.25
2023-05-10T14:09:57.173Z,100465.94
2023-05-10T14:12:23.642Z,100455.19
2023-05-10T14:14:50.140Z,100449.72
2023-05-10T14:17:17.918Z,100453.19
2023-05-10T14:19:44.492Z,100456.47
2023-05-10T14:22:11.097Z,100457.72
2023-05-10T14:24:38.805Z,100455.41
2023-05-10T14:27:05.282Z,100449.41
2023-05-10T14:29:31.776Z,100456.25
2023-05-10T14:31:58.267Z,100441.59
2023-05-10T14:34:26.120Z,100448.13
2023-05-10T14:36:53.003Z,100456.88
2023-05-10T14:39:19.470Z,100445.88
2023-05-10T14:41:46.043Z,100449.50
2023-05-10T14:44:12.688Z,100444.81
2023-05-10T14:46:39.142Z,100440.28
2023-05-10T14:49:05.739Z,100437.34
2023-05-10T14:51:33.669Z,100450.38
2023-05-10T14:54:00.500Z,100441.34
2023-05-10T14:56:26.973Z,100439.75
2023-05-10T14:58:53.452Z,100438.25
2023-05-10T15:01:20.492Z,100443.28
2023-05-10T15:03:47.480Z,100441.41
2023-05-10T15:06:15.560Z,100443.72
2023-05-10T15:08:43.430Z,100446.66
2023-05-10T15:11:09.989Z,100445.03
2023-05-10T15:13:36.471Z,100443.91
2023-05-10T15:16:02.960Z,100451.69
2023-05-10T15:18:29.526Z,100452.53
2023-05-10T15:20:56.004Z,100448.97
2023-05-10T15:23:22.557Z,100439.06
2023-05-10T15:25:50.354Z,100438.22
2023-05-10T15:28:16.798Z,100446.00
2023-05-10T15:30:43.216Z,100434.13
2023-05-10T15:33:09.743Z,100437.53
2023-05-10T15:35:36.261Z,100439.50
2023-05-10T15:38:02.726Z,100440.19
2023-05-10T15:40:29.290Z,100443.28
2023-05-10T15:42:57.031Z,100444.28
2023-05-10T15:45:23.568Z,100438.06
2023-05-10T15:47:50.081Z,100448.69
2023-05-10T15:50:16.869Z,100445.06
2023-05-10T15:52:43.350Z,100449.59
2023-05-10T15:55:10.409Z,100460.16
2023-05-10T15:57:36.979Z,100459.69
2023-05-10T16:00:05.628Z,100456.31
2023-05-10T16:02:32.173Z,100458.72
2023-05-10T16:04:58.679Z,100466.34
2023-05-10T16:07:25.150Z,100468.94
2023-05-10T16:09:51.622Z,100461.44
2023-05-10T16:12:18.320Z,100466.09
2023-05-10T16:14:44.785Z,100468.94
2023-05-10T16:17:12.617Z,100468.03
2023-05-10T16:19:39.160Z,100469.16
2023-05-10T16:22:05.664Z,100475.00
2023-05-10T16:24:32.205Z,100473.72
2023-05-10T16:26:58.747Z,100468.94
2023-05-10T16:29:25.272Z,100479.53
2023-05-10T16:31:51.820Z,100473.03
2023-05-10T16:34:19.588Z,100474.16
2023-05-10T16:36:46.003Z,100480.75
2023-05-10T16:39:12.455Z,100476.78
2023-05-10T16:41:38.884Z,100476.41
2023-05-10T16:44:05.452Z,100472.63
2023-05-10T16:46:31.938Z,100470.50
2023-05-10T16:48:58.564Z,100477.56
2023-05-10T16:51:26.482Z,100474.47
2023-05-10T16:53:53.152Z,100473.72
2023-05-10T16:56:19.633Z,100466.47
2023-05-10T16:58:46.650Z,100471.31
2023-05-10T17:01:13.154Z,100470.78
2023-05-10T17:03:39.780Z,100472.31
2023-05-10T17:06:06.526Z,100476.56
2023-05-10T17:08:34.320Z,100470.34
2023-05-10T17:11:01.355Z,100473.88
2023-05-10T17:13:27.920Z,100477.84
2023-05-10T17:15:54.559Z,100468.88
2023-05-10T17:18:21.140Z,100467.63
2023-05-10T17:20:47.682Z,100460.03
2023-05-10T17:23:14.215Z,100462.44
2023-05-10T17:25:41.974Z,100455.34
2023-05-10T17:28:08.683Z,100456.66
2023-05-10T17:30:35.250Z,100461.88
2023-05-10T17:33:01.858Z,100456.91
2023-05-10T17:35:29.355Z,100462.53
2023-05-10T17:37:55.792Z,100469.06
2023-05-10T17:40:22.301Z,100461.56
2023-05-10T17:42:50.200Z,100458.59
2023-05-10T17:45:17.749Z,100456.50
2023-05-10T17:47:44.692Z,100454.66
2023-05-10T17:50:11.244Z,100451.84
2023-05-10T17:52:37.822Z,100459.75
2023-05-10T17:55:04.752Z,100456.03
2023-05-10T17:57:31.323Z,100458.31
2023-05-10T17:59:59.112Z,100458.88
2023-05-10T18:02:25.683Z,100459.44
2023-05-10T18:04:52.214Z,100460.19
2023-05-10T18:07:18.712Z,100466.28
2023-05-10T18:09:45.385Z,100464.03
2023-05-10T18:12:11.859Z,100474.19
2023-05-10T18:14:41.123Z,100478.94
2023-05-10T18:17:09.993Z,100478.94
2023-05-10T18:19:36.837Z,100477.56
2023-05-10T18:22:03.441Z,100480.00
2023-05-10T18:24:39.076Z,100481.53
2023-05-10T18:27:06.622Z,100481.84
2023-05-10T18:29:33.132Z,100473.06
2023-05-10T18:31:59.724Z,100481.13
2023-05-10T18:34:27.592Z,100482.75
2023-05-10T18:36:54.314Z,100484.31
2023-05-10T18:39:20.867Z,100485.75
2023-05-10T18:41:47.347Z,100487.19
2023-05-10T18:44:13.785Z,100480.00
2023-05-10T18:46:40.371Z,100485.09
2023-05-10T18:49:07.022Z,100486.63
2023-05-10T18:51:34.952Z,100487.47
2023-05-10T18:54:01.468Z,100484.78
2023-05-10T18:56:28.017Z,100485.44
2023-05-10T18:58:54.440Z,100493.09
2023-05-10T19:01:20.923Z,100486.63
2023-05-10T19:03:47.383Z,100497.22
2023-05-10T19:06:13.972Z,100497.78
2023-05-10T19:08:41.768Z,100499.50
2023-05-10T19:11:08.281Z,100494.00
2023-05-10T19:13:34.896Z,100500.34
2023-05-10T19:16:03.928Z,100501.56
2023-05-10T19:18:31.150Z,100501.56
2023-05-10T19:20:57.680Z,100497.63
2023-05-10T19:23:30.153Z,100494.69
2023-05-10T19:25:58.667Z,100491.84
2023-05-10T19:28:25.750Z,100495.25
2023-05-10T19:30:52.221Z,100498.78
2023-05-10T19:33:19.374Z,100500.75
2023-05-10T19:35:45.896Z,100498.44
2023-05-10T19:38:12.521Z,100501.84
2023-05-10T19:40:39.026Z,100507.66
2023-05-10T19:43:06.818Z,100508.38
2023-05-10T19:45:33.351Z,100508.22
2023-05-10T19:48:00.063Z,100506.41
2023-05-10T19:50:26.622Z,100506.13
2023-05-10T19:52:53.093Z,100519.56
2023-05-10T19:55:27.918Z,100515.59
2023-05-10T19:57:54.413Z,100522.75
2023-05-10T20:00:22.649Z,100517.97
2023-05-10T20:02:49.719Z,100526.63
2023-05-10T20:05:16.663Z,100527.31
2023-05-10T20:07:43.371Z,100528.88
2023-05-10T20:10:11.043Z,100527.88
2023-05-10T20:12:37.547Z,100530.56
2023-05-10T20:15:06.334Z,100535.25
2023-05-10T20:17:35.257Z,100540.97
2023-05-10T20:20:01.813Z,100542.41
2023-05-10T20:22:28.574Z,100538.47
2023-05-10T20:24:56.240Z,100540.88
2023-05-10T20:27:23.561Z,100538.91
2023-05-10T20:29:50.102Z,100539.78
2023-05-10T20:32:16.568Z,100541.22
2023-05-10T20:34:44.367Z,100538.63
2023-05-10T20:37:10.827Z,100539.56
2023-05-10T20:39:37.276Z,100553.41
2023-05-10T20:42:04.011Z,100554.84
2023-05-10T20:44:30.469Z,100551.06
2023-05-10T20:46:57.082Z,100557.13
2023-05-10T20:49:23.530Z,100561.53
2023-05-10T20:51:51.272Z,100560.38
2023-05-10T20:54:17.765Z,100554.91
2023-05-10T20:56:44.269Z,100556.75
2023-05-10T20:59:11.025Z,100557.09
2023-05-10T21:01:37.550Z,100561.47
2023-05-10T21:04:04.059Z,100561.22
2023-05-10T21:06:30.516Z,100567.16
2023-05-10T21:08:58.310Z,100563.22
2023-05-10T21:11:24.758Z,100562.38
2023-05-10T21:13:51.548Z,100564.91
2023-05-10T21:16:18.038Z,100565.75
2023-05-10T21:18:44.553Z,100568.59
2023-05-10T21:21:11.108Z,100568.09
2023-05-10T21:23:37.595Z,100564.16
2023-05-10T21:26:05.392Z,100565.44
2023-05-10T21:28:31.892Z,100567.03
2023-05-10T21:30:58.481Z,100558.97
2023-05-10T21:33:24.936Z,100558.69
2023-05-10T21:35:51.399Z,100556.84
2023-05-10T21:38:17.907Z,100555.03
2023-05-10T21:40:44.336Z,100553.41
2023-05-10T21:43:12.104Z,100556.38
2023-05-10T21:45:38.667Z,100554.28
2023-05-10T21:48:05.225Z,100552.16
2023-05-10T21:50:31.902Z,100558.13
2023-05-10T21:52:58.356Z,100546.25
2023-05-10T21:55:24.902Z,100552.47
2023-05-10T21:57:51.355Z,100551.50
2023-05-10T22:00:19.610Z,100551.50
2023-05-10T22:02:46.979Z,100548.91
2023-05-10T22:05:13.584Z,100548.47
2023-05-10T22:07:40.208Z,100548.03
2023-05-10T22:10:07.620Z,100553.00
2023-05-10T22:12:34.109Z,100541.16
2023-05-10T22:15:10.291Z,100544.69
2023-05-10T22:17:40.108Z,100540.88
2023-05-10T22:20:08.071Z,100532.69
2023-05-10T22:22:34.528Z,100533.69
2023-05-10T22:25:01.004Z,100535.88
2023-05-10T22:27:27.484Z,100534.03
2023-05-10T22:29:53.892Z,100543.38
2023-05-10T22:32:20.333Z,100535.06
2023-05-10T22:34:48.184Z,100537.47
2023-05-10T22:37:14.704Z,100535.53
2023-05-10T22:39:41.286Z,100534.53
2023-05-10T22:42:07.916Z,100533.53
2023-05-10T22:44:34.360Z,100530.25
2023-05-10T22:47:00.836Z,100537.72
2023-05-10T22:49:27.296Z,100540.41
2023-05-10T22:51:55.045Z,100536.31
2023-05-10T22:54:21.493Z,100539.56
2023-05-10T22:56:48.009Z,100536.63
2023-05-10T22:59:14.451Z,100533.69
2023-05-10T23:01:40.990Z,100534.53
2023-05-10T23:04:07.564Z,100538.06
2023-05-10T23:06:34.322Z,100529.28
2023-05-10T23:09:02.116Z,100536.72
2023-05-10T23:11:28.568Z,100531.19
2023-05-10T23:13:55.093Z,100535.31
2023-05-10T23:16:21.664Z,100536.78
2023-05-10T23:18:48.200Z,100520.34
2023-05-10T23:21:14.710Z,100523.94
2023-05-10T23:23:41.197Z,100525.63
2023-05-10T23:26:08.989Z,100521.09
2023-05-10T23:28:35.478Z,100523.72
2023-05-10T23:31:01.954Z,100530.63
2023-05-10T23:33:28.527Z,100524.88
2023-05-10T23:35:55.025Z,100527.00
2023-05-10T23:38:21.747Z,100526.03
2023-05-10T23:40:48.752Z,100520.34
2023-05-10T23:43:16.929Z,100524.88
2023-05-10T23:45:43.533Z,100523.66
2023-05-10T23:48:10.018Z,100529.88
2023-05-10T23:50:36.464Z,100522.19
2023-05-10T23:53:02.948Z,100524.97
2023-05-10T23:55:32.507Z,100517.38
2023-05-10T23:57:58.964Z,100522.47
